Terminal Aerodrome Forecast
Issued by NWS Bismarck, ND

Home | Current Version | Previous Version | Text Only | Print | Product List | Glossary Off
Versions: 1 2 3 4 5 6 7 8 9 10 11 12 13 14 15 16 17 18 19 20 21 22 23

000
FTUS43 KBIS 201125
TAFBIS
TAF
KBIS 201125Z 2012/2112 32008KT P6SM -RA OVC060
     FM201400 29007KT 6SM BR SCT005 OVC060
     FM201900 28011KT P6SM SKC
     FM210300 21004KT P6SM FEW150=

USA.gov is the U.S. government's official web portal to all federal, state and local government web resources and services.